Aeroporto :
LOGIN :

Iscrizione | Disclaimer

   EN    FR    IT 

 










Sommario :    VFR   VFR Marginale   IFR   IFR Intensivo   IFR Molto Intensivo
Visibilità : 
Base nubi : 
>= 8 km
>= 3000ft
5 / 8 km
1000 / 3000 ft
1500m / 5 km
500 / 1000 ft
800 / 1500m
200 / 500 ft
< 800m
< 200 ft
Simboli :   Temporali  Nebbia  Neve Forte  Precipitazioni Forti  Vento > 20 kt
SIGMETs :   Varie  Temporali  Ghiacco  Turbolenza  Onda orograficha  Ceneri Vulcaniche






- Altitudine del aeroporto : 154 ft
- Codice IATA : SZZ


EPSC - Szczecin Goleniow

ULTIMO METAR :
  • 180730Z 24009KT 210V270 9999 SCT013 BKN016 06/04 Q1013

METARs OBSOLETI :
  • 180700Z 23009KT 200V260 9999 SCT013 BKN019 06/03 Q1012
  • 180630Z 23010KT 200V260 9999 SCT015 BKN042 06/03 Q1012
  • 180600Z 23009KT 200V260 9999 FEW017 SCT020CB BKN023 06/03 Q1011
  • 180530Z 23011KT 200V260 9999 SCT023CB BKN040 06/03 Q1011
  • 180500Z 23011KT 200V260 9999 FEW003 SCT023CB BKN026 06/03 Q1011

TAF TAF EPSC
Valido dal 18 a 06 ore il 19 a 06 ore UTC


180530Z 1806/1906 22010KT 9999 BKN035
TEMPO 1806/1824 -SHRA BKN014CB
PROB30
TEMPO 1809/1815 26018G35KT 4000 TSRA SCT004 BKN009CB
PROB40 1900/1906 -RA BKN010



MetMap, La meteo Aeronautica in un colpo d'occhio ! - Copyright ORBIFLY Dicembre 2007 - Disclaimer

ORBIFLY MET'MAP TEAM :

Programmazione e sviluppo : Alexandra Zaïnal
Concezione : Baudouin d'Aumeries
Aiuto per la programmazione : Marc-Olivier Méhu
Supporto tecnico e logistico : Manuel Goepfert
Aiuto per la traduzione : Arnaldo La Scala

Contatto : metmap@orbifly.com




FONTI E CREDITI :

   NOAA